sensor_id;sensor_type;location;lat;lon;timestamp;pressure;altitude;pressure_sealevel;temperature;humidity
60725;BME280;59881;36.722;-4.462;2022-08-21T00:02:22;101160.72;;;21.65;45.60
60725;BME280;59881;36.722;-4.462;2022-08-21T00:04:49;101079.09;;;21.76;45.93
60725;BME280;59881;36.722;-4.462;2022-08-21T00:07:16;101014.69;;;21.35;45.82
60725;BME280;59881;36.722;-4.462;2022-08-21T00:09:42;101254.63;;;21.82;45.81
60725;BME280;59881;36.722;-4.462;2022-08-21T00:12:08;100354.59;;;17.33;45.91
60725;BME280;59881;36.722;-4.462;2022-08-21T00:14:33;100895.00;;;20.69;46.30
60725;BME280;59881;36.722;-4.462;2022-08-21T00:17:00;100948.47;;;21.03;46.58
60725;BME280;59881;36.722;-4.462;2022-08-21T00:19:26;100797.81;;;20.17;46.97
60725;BME280;59881;36.722;-4.462;2022-08-21T00:21:53;100367.28;;;17.57;47.13
60725;BME280;59881;36.722;-4.462;2022-08-21T00:24:20;101007.00;;;20.90;47.02
60725;BME280;59881;36.722;-4.462;2022-08-21T00:26:46;100905.78;;;20.93;46.97
60725;BME280;59881;36.722;-4.462;2022-08-21T00:29:13;101059.00;;;21.88;47.17
60725;BME280;59881;36.722;-4.462;2022-08-21T00:31:39;101078.13;;;22.02;46.92
60725;BME280;59881;36.722;-4.462;2022-08-21T00:34:06;100982.38;;;20.43;47.27
60725;BME280;59881;36.722;-4.462;2022-08-21T00:36:32;100891.19;;;20.79;46.85
60725;BME280;59881;36.722;-4.462;2022-08-21T00:38:59;101073.25;;;21.89;46.41
60725;BME280;59881;36.722;-4.462;2022-08-21T00:41:25;100785.78;;;20.13;46.39
60725;BME280;59881;36.722;-4.462;2022-08-21T00:43:53;100291.31;;;17.01;46.51
60725;BME280;59881;36.722;-4.462;2022-08-21T00:46:19;101102.34;;;21.51;46.55
60725;BME280;59881;36.722;-4.462;2022-08-21T00:48:45;101000.06;;;21.13;46.68
60725;BME280;59881;36.722;-4.462;2022-08-21T00:51:19;101091.16;;;21.13;46.36
60725;BME280;59881;36.722;-4.462;2022-08-21T00:53:54;101518.91;;;21.58;45.75
60725;BME280;59881;36.722;-4.462;2022-08-21T00:56:22;100398.09;;;17.59;45.92
60725;BME280;59881;36.722;-4.462;2022-08-21T00:58:48;101022.28;;;21.48;45.79
60725;BME280;59881;36.722;-4.462;2022-08-21T01:01:15;101143.75;;;21.65;45.55
60725;BME280;59881;36.722;-4.462;2022-08-21T01:03:41;101035.53;;;21.66;46.12
60725;BME280;59881;36.722;-4.462;2022-08-21T01:06:07;100254.13;;;16.91;46.19
60725;BME280;59881;36.722;-4.462;2022-08-21T01:08:33;100278.50;;;17.04;46.02
60725;BME280;59881;36.722;-4.462;2022-08-21T01:10:59;100269.34;;;16.99;46.44
60725;BME280;59881;36.722;-4.462;2022-08-21T01:13:27;101039.72;;;21.68;46.55
60725;BME280;59881;36.722;-4.462;2022-08-21T01:15:56;100614.56;;;19.03;46.76
60725;BME280;59881;36.722;-4.462;2022-08-21T01:18:25;101141.94;;;21.65;46.77
60725;BME280;59881;36.722;-4.462;2022-08-21T01:21:15;101037.53;;;21.64;46.96
60725;BME280;59881;36.722;-4.462;2022-08-21T01:23:48;100362.56;;;17.51;46.89
60725;BME280;59881;36.722;-4.462;2022-08-21T01:26:16;100289.00;;;17.06;47.31
60725;BME280;59881;36.722;-4.462;2022-08-21T01:28:47;100853.16;;;20.59;46.96
60725;BME280;59881;36.722;-4.462;2022-08-21T01:31:15;100999.81;;;21.49;47.10
60725;BME280;59881;36.722;-4.462;2022-08-21T01:33:41;100359.00;;;17.60;47.12
60725;BME280;59881;36.722;-4.462;2022-08-21T01:36:07;101185.72;;;21.74;47.00
60725;BME280;59881;36.722;-4.462;2022-08-21T01:38:33;100271.81;;;17.18;46.84
60725;BME280;59881;36.722;-4.462;2022-08-21T01:40:58;100254.31;;;16.89;46.77
60725;BME280;59881;36.722;-4.462;2022-08-21T01:43:24;100236.09;;;17.03;46.69
60725;BME280;59881;36.722;-4.462;2022-08-21T01:45:49;101045.44;;;21.90;46.67
60725;BME280;59881;36.722;-4.462;2022-08-21T01:48:16;100365.56;;;17.74;46.49
60725;BME280;59881;36.722;-4.462;2022-08-21T01:50:41;100213.28;;;17.00;46.63
60725;BME280;59881;36.722;-4.462;2022-08-21T01:53:07;100532.31;;;17.31;46.61
60725;BME280;59881;36.722;-4.462;2022-08-21T01:55:33;101026.50;;;21.08;47.22
60725;BME280;59881;36.722;-4.462;2022-08-21T01:57:59;100255.84;;;17.18;47.20
60725;BME280;59881;36.722;-4.462;2022-08-21T02:00:25;100281.44;;;17.37;47.70
60725;BME280;59881;36.722;-4.462;2022-08-21T02:02:51;100420.72;;;18.26;47.67
60725;BME280;59881;36.722;-4.462;2022-08-21T02:05:17;100862.22;;;20.83;47.37
60725;BME280;59881;36.722;-4.462;2022-08-21T02:07:49;98509.28;;;5.94;47.14
60725;BME280;59881;36.722;-4.462;2022-08-21T02:10:19;100864.75;;;21.01;47.40
60725;BME280;59881;36.722;-4.462;2022-08-21T02:12:45;100503.25;;;16.92;47.18
60725;BME280;59881;36.722;-4.462;2022-08-21T02:15:10;101005.88;;;21.84;47.54
60725;BME280;59881;36.722;-4.462;2022-08-21T02:17:41;100257.88;;;17.24;47.43
60725;BME280;59881;36.722;-4.462;2022-08-21T02:20:08;100926.25;;;21.35;47.41
60725;BME280;59881;36.722;-4.462;2022-08-21T02:22:34;101173.06;;;21.58;46.97
60725;BME280;59881;36.722;-4.462;2022-08-21T02:24:59;100224.78;;;17.01;46.94
60725;BME280;59881;36.722;-4.462;2022-08-21T02:27:25;100831.59;;;20.69;47.08
60725;BME280;59881;36.722;-4.462;2022-08-21T02:29:51;100718.03;;;19.28;46.82
60725;BME280;59881;36.722;-4.462;2022-08-21T02:32:17;100971.03;;;21.59;46.56
60725;BME280;59881;36.722;-4.462;2022-08-21T02:34:42;100958.47;;;17.29;46.98
60725;BME280;59881;36.722;-4.462;2022-08-21T02:37:08;101001.53;;;21.75;47.11
60725;BME280;59881;36.722;-4.462;2022-08-21T02:39:33;100963.47;;;21.63;47.46
60725;BME280;59881;36.722;-4.462;2022-08-21T02:41:59;100942.66;;;21.24;47.08
60725;BME280;59881;36.722;-4.462;2022-08-21T02:44:25;100314.16;;;17.55;46.97
60725;BME280;59881;36.722;-4.462;2022-08-21T02:46:51;100985.94;;;21.62;47.48
60725;BME280;59881;36.722;-4.462;2022-08-21T02:49:16;100863.19;;;20.65;47.52
60725;BME280;59881;36.722;-4.462;2022-08-21T02:51:42;100151.84;;;16.31;47.16
60725;BME280;59881;36.722;-4.462;2022-08-21T02:54:07;100955.59;;;21.53;47.19
60725;BME280;59881;36.722;-4.462;2022-08-21T02:56:33;100288.72;;;17.35;47.01
60725;BME280;59881;36.722;-4.462;2022-08-21T02:58:58;100981.25;;;21.64;47.19
60725;BME280;59881;36.722;-4.462;2022-08-21T03:01:24;100350.91;;;17.70;47.25
60725;BME280;59881;36.722;-4.462;2022-08-21T03:03:50;100882.84;;;20.91;47.42
60725;BME280;59881;36.722;-4.462;2022-08-21T03:06:17;100573.84;;;19.01;47.40
60725;BME280;59881;36.722;-4.462;2022-08-21T03:08:43;100796.81;;;20.18;47.59
60725;BME280;59881;36.722;-4.462;2022-08-21T03:11:10;100981.41;;;21.46;47.70
60725;BME280;59881;36.722;-4.462;2022-08-21T03:13:36;100922.00;;;20.92;47.95
60725;BME280;59881;36.722;-4.462;2022-08-21T03:16:02;100746.94;;;20.01;47.68
60725;BME280;59881;36.722;-4.462;2022-08-21T03:18:28;101282.34;;;21.38;47.64
60725;BME280;59881;36.722;-4.462;2022-08-21T03:20:53;100203.28;;;16.58;47.46
60725;BME280;59881;36.722;-4.462;2022-08-21T03:23:19;100201.25;;;16.52;47.67
60725;BME280;59881;36.722;-4.462;2022-08-21T03:25:46;100220.78;;;16.61;47.94
60725;BME280;59881;36.722;-4.462;2022-08-21T03:28:16;100676.03;;;19.38;48.28
60725;BME280;59881;36.722;-4.462;2022-08-21T03:30:44;100996.88;;;21.18;47.98
60725;BME280;59881;36.722;-4.462;2022-08-21T03:33:11;100774.16;;;19.96;48.21
60725;BME280;59881;36.722;-4.462;2022-08-21T03:35:37;100695.06;;;19.43;48.38
60725;BME280;59881;36.722;-4.462;2022-08-21T03:38:03;100959.84;;;21.05;48.42
60725;BME280;59881;36.722;-4.462;2022-08-21T03:40:28;100214.81;;;16.49;48.34
60725;BME280;59881;36.722;-4.462;2022-08-21T03:42:54;101097.97;;;21.07;48.27
60725;BME280;59881;36.722;-4.462;2022-08-21T03:45:20;100459.44;;;17.86;48.38
60725;BME280;59881;36.722;-4.462;2022-08-21T03:48:01;100661.88;;;19.11;48.46
60725;BME280;59881;36.722;-4.462;2022-08-21T03:50:31;101021.41;;;20.88;48.41
60725;BME280;59881;36.722;-4.462;2022-08-21T03:52:57;100972.88;;;20.83;48.70
60725;BME280;59881;36.722;-4.462;2022-08-21T03:55:24;100969.34;;;20.83;48.54
60725;BME280;59881;36.722;-4.462;2022-08-21T03:57:50;100629.25;;;18.73;48.44
60725;BME280;59881;36.722;-4.462;2022-08-21T04:00:17;100884.13;;;20.27;48.88
60725;BME280;59881;36.722;-4.462;2022-08-21T04:02:44;100965.63;;;20.76;48.53
60725;BME280;59881;36.722;-4.462;2022-08-21T04:05:12;100990.63;;;19.80;48.64
60725;BME280;59881;36.722;-4.462;2022-08-21T04:07:38;100177.22;;;15.90;48.79
60725;BME280;59881;36.722;-4.462;2022-08-21T04:10:06;100306.78;;;16.69;48.40
60725;BME280;59881;36.722;-4.462;2022-08-21T04:12:32;100451.13;;;17.53;48.35
60725;BME280;59881;36.722;-4.462;2022-08-21T04:14:57;101081.00;;;20.38;48.57
60725;BME280;59881;36.722;-4.462;2022-08-21T04:17:23;101062.03;;;20.05;48.77
60725;BME280;59881;36.722;-4.462;2022-08-21T04:19:49;100871.25;;;19.97;48.63
60725;BME280;59881;36.722;-4.462;2022-08-21T04:22:15;100993.88;;;20.62;48.97
60725;BME280;59881;36.722;-4.462;2022-08-21T04:24:41;100848.66;;;19.65;48.71
60725;BME280;59881;36.722;-4.462;2022-08-21T04:27:07;100920.25;;;20.32;48.99
60725;BME280;59881;36.722;-4.462;2022-08-21T04:29:32;100156.75;;;15.63;48.53
60725;BME280;59881;36.722;-4.462;2022-08-21T04:31:58;100955.47;;;20.53;49.00
60725;BME280;59881;36.722;-4.462;2022-08-21T04:34:24;100715.88;;;19.05;48.74
60725;BME280;59881;36.722;-4.462;2022-08-21T04:36:50;100763.50;;;19.36;49.13
60725;BME280;59881;36.722;-4.462;2022-08-21T04:39:15;100953.78;;;20.52;49.08
60725;BME280;59881;36.722;-4.462;2022-08-21T04:41:41;100672.69;;;18.84;48.92
60725;BME280;59881;36.722;-4.462;2022-08-21T04:44:06;100441.66;;;16.87;48.67
60725;BME280;59881;36.722;-4.462;2022-08-21T04:46:32;99951.38;;;14.35;48.70
60725;BME280;59881;36.722;-4.462;2022-08-21T04:48:57;100780.75;;;19.50;49.20
60725;BME280;59881;36.722;-4.462;2022-08-21T04:51:29;101039.81;;;19.87;49.12
60725;BME280;59881;36.722;-4.462;2022-08-21T04:54:00;100945.25;;;20.49;49.48
60725;BME280;59881;36.722;-4.462;2022-08-21T04:59:14;100121.09;;;13.44;48.47
60725;BME280;59881;36.722;-4.462;2022-08-21T05:01:42;99916.03;;;14.07;49.11
60725;BME280;59881;36.722;-4.462;2022-08-21T05:04:12;100774.50;;;19.15;49.48
60725;BME280;59881;36.722;-4.462;2022-08-21T05:06:38;100809.47;;;19.48;49.44
60725;BME280;59881;36.722;-4.462;2022-08-21T05:09:06;100179.81;;;15.62;49.42
60725;BME280;59881;36.722;-4.462;2022-08-21T05:11:34;100453.56;;;17.28;49.56
60725;BME280;59881;36.722;-4.462;2022-08-21T05:14:01;100894.69;;;19.33;50.11
60725;BME280;59881;36.722;-4.462;2022-08-21T05:16:27;100706.31;;;18.76;50.26
60725;BME280;59881;36.722;-4.462;2022-08-21T05:18:53;100797.44;;;19.17;50.49
60725;BME280;59881;36.722;-4.462;2022-08-21T05:21:18;100816.09;;;19.35;50.48
60725;BME280;59881;36.722;-4.462;2022-08-21T05:23:44;100854.22;;;19.46;50.39
60725;BME280;59881;36.722;-4.462;2022-08-21T05:26:09;100820.44;;;19.18;50.54
60725;BME280;59881;36.722;-4.462;2022-08-21T05:28:35;100792.31;;;19.24;50.49
60725;BME280;59881;36.722;-4.462;2022-08-21T05:31:00;100916.50;;;19.90;50.28
60725;BME280;59881;36.722;-4.462;2022-08-21T05:33:26;100173.06;;;15.40;49.92
60725;BME280;59881;36.722;-4.462;2022-08-21T05:35:53;100087.53;;;14.91;49.43
60725;BME280;59881;36.722;-4.462;2022-08-21T05:38:22;100922.72;;;19.91;49.68
60725;BME280;59881;36.722;-4.462;2022-08-21T05:40:48;100957.31;;;20.18;49.30
60725;BME280;59881;36.722;-4.462;2022-08-21T05:43:14;100989.94;;;20.22;49.27
60725;BME280;59881;36.722;-4.462;2022-08-21T05:45:40;100774.84;;;19.12;49.10
60725;BME280;59881;36.722;-4.462;2022-08-21T05:48:12;100390.28;;;16.86;48.95
60725;BME280;59881;36.722;-4.462;2022-08-21T05:50:38;100621.09;;;14.75;48.53
60725;BME280;59881;36.722;-4.462;2022-08-21T05:53:04;100226.78;;;15.99;48.61
60725;BME280;59881;36.722;-4.462;2022-08-21T05:55:30;100276.19;;;16.83;48.08
60725;BME280;59881;36.722;-4.462;2022-08-21T05:57:55;100735.16;;;20.36;46.84
60725;BME280;59881;36.722;-4.462;2022-08-21T06:00:21;100384.78;;;18.80;45.22
60725;BME280;59881;36.722;-4.462;2022-08-21T06:02:49;101078.59;;;22.55;43.38
60725;BME280;59881;36.722;-4.462;2022-08-21T06:05:15;100760.91;;;22.62;42.04
60725;BME280;59881;36.722;-4.462;2022-08-21T06:07:40;101021.84;;;24.06;40.74
60725;BME280;59881;36.722;-4.462;2022-08-21T06:10:06;100277.94;;;20.58;39.52
60725;BME280;59881;36.722;-4.462;2022-08-21T06:12:32;100882.34;;;24.90;37.93
60725;BME280;59881;36.722;-4.462;2022-08-21T06:14:57;100743.22;;;24.61;37.21
60725;BME280;59881;36.722;-4.462;2022-08-21T06:17:23;101037.69;;;26.49;36.32
60725;BME280;59881;36.722;-4.462;2022-08-21T06:19:53;100804.09;;;26.38;34.73
60725;BME280;59881;36.722;-4.462;2022-08-21T06:22:19;101050.94;;;27.88;33.19
60725;BME280;59881;36.722;-4.462;2022-08-21T06:24:46;100803.59;;;27.49;32.90
60725;BME280;59881;36.722;-4.462;2022-08-21T06:27:11;100413.22;;;25.53;32.25
60725;BME280;59881;36.722;-4.462;2022-08-21T06:29:37;100465.06;;;26.35;31.76
60725;BME280;59881;36.722;-4.462;2022-08-21T06:32:04;100954.00;;;29.84;30.91
60725;BME280;59881;36.722;-4.462;2022-08-21T06:34:31;100830.53;;;29.43;30.38
60725;BME280;59881;36.722;-4.462;2022-08-21T06:36:57;100422.69;;;27.33;29.96
60725;BME280;59881;36.722;-4.462;2022-08-21T06:39:23;100955.03;;;31.12;28.69
60725;BME280;59881;36.722;-4.462;2022-08-21T06:41:48;100378.16;;;28.04;28.86
60725;BME280;59881;36.722;-4.462;2022-08-21T06:44:16;100477.88;;;29.48;27.36
60725;BME280;59881;36.722;-4.462;2022-08-21T06:46:42;100504.81;;;30.39;27.05
60725;BME280;59881;36.722;-4.462;2022-08-21T06:49:08;100968.25;;;33.26;26.27
60725;BME280;59881;36.722;-4.462;2022-08-21T06:51:33;100385.13;;;30.74;25.51
60725;BME280;59881;36.722;-4.462;2022-08-21T06:53:59;100411.19;;;31.44;25.01
60725;BME280;59881;36.722;-4.462;2022-08-21T06:56:25;100919.28;;;34.53;24.17
60725;BME280;59881;36.722;-4.462;2022-08-21T06:58:50;100411.16;;;31.95;24.08
60725;BME280;59881;36.722;-4.462;2022-08-21T07:01:16;100729.59;;;34.10;24.37
60725;BME280;59881;36.722;-4.462;2022-08-21T07:03:43;100842.72;;;35.12;23.58
60725;BME280;59881;36.722;-4.462;2022-08-21T07:06:10;100767.75;;;35.18;23.22
60725;BME280;59881;36.722;-4.462;2022-08-21T07:08:36;100939.56;;;37.02;22.24
60725;BME280;59881;36.722;-4.462;2022-08-21T07:11:07;100806.38;;;36.53;21.44
60725;BME280;59881;36.722;-4.462;2022-08-21T07:13:34;100942.56;;;38.03;20.33
60725;BME280;59881;36.722;-4.462;2022-08-21T07:16:01;100458.94;;;35.56;20.29
60725;BME280;59881;36.722;-4.462;2022-08-21T07:18:26;100803.41;;;38.07;19.68
60725;BME280;59881;36.722;-4.462;2022-08-21T07:20:52;100736.59;;;38.06;19.22
60725;BME280;59881;36.722;-4.462;2022-08-21T07:23:30;100879.63;;;39.59;18.71
60725;BME280;59881;36.722;-4.462;2022-08-21T07:25:57;100424.94;;;37.53;18.25
60725;BME280;59881;36.722;-4.462;2022-08-21T07:28:24;100409.66;;;38.00;17.84
60725;BME280;59881;36.722;-4.462;2022-08-21T07:30:52;100941.94;;;41.60;16.91
60725;BME280;59881;36.722;-4.462;2022-08-21T07:33:18;100937.53;;;41.59;17.10
60725;BME280;59881;36.722;-4.462;2022-08-21T07:35:44;100917.22;;;41.50;16.91
60725;BME280;59881;36.722;-4.462;2022-08-21T07:38:09;100462.91;;;39.19;16.93
60725;BME280;59881;36.722;-4.462;2022-08-21T07:40:35;100923.50;;;42.75;15.92
60725;BME280;59881;36.722;-4.462;2022-08-21T07:43:01;101010.28;;;43.20;15.38
60725;BME280;59881;36.722;-4.462;2022-08-21T07:45:27;100571.34;;;41.15;15.44
60725;BME280;59881;36.722;-4.462;2022-08-21T07:47:52;100950.09;;;43.75;15.75
60725;BME280;59881;36.722;-4.462;2022-08-21T07:50:18;100914.59;;;43.23;16.82
60725;BME280;59881;36.722;-4.462;2022-08-21T07:52:45;100903.28;;;42.52;17.65
60725;BME280;59881;36.722;-4.462;2022-08-21T07:55:13;100875.09;;;42.50;17.30
60725;BME280;59881;36.722;-4.462;2022-08-21T07:57:39;100816.84;;;41.91;18.02
60725;BME280;59881;36.722;-4.462;2022-08-21T08:00:07;100452.31;;;39.92;17.18
60725;BME280;59881;36.722;-4.462;2022-08-21T08:02:34;100093.75;;;37.79;17.08
60725;BME280;59881;36.722;-4.462;2022-08-21T08:05:01;100784.78;;;42.04;16.48
60725;BME280;59881;36.722;-4.462;2022-08-21T08:07:27;100431.91;;;40.07;16.06
60725;BME280;59881;36.722;-4.462;2022-08-21T08:09:53;100434.47;;;40.31;15.83
60725;BME280;59881;36.722;-4.462;2022-08-21T08:12:18;99578.50;;;34.95;16.24
60725;BME280;59881;36.722;-4.462;2022-08-21T08:14:45;100525.28;;;41.69;15.61
60725;BME280;59881;36.722;-4.462;2022-08-21T08:17:11;100955.09;;;44.44;14.84
60725;BME280;59881;36.722;-4.462;2022-08-21T08:19:39;100674.25;;;42.84;14.72
60725;BME280;59881;36.722;-4.462;2022-08-21T08:22:14;100589.41;;;42.56;14.96
60725;BME280;59881;36.722;-4.462;2022-08-21T08:24:40;100919.97;;;44.83;14.48
60725;BME280;59881;36.722;-4.462;2022-08-21T08:27:05;100441.88;;;42.65;14.15
60725;BME280;59881;36.722;-4.462;2022-08-21T08:29:31;100934.06;;;45.90;14.36
60725;BME280;59881;36.722;-4.462;2022-08-21T08:31:57;100930.09;;;46.08;14.04
60725;BME280;59881;36.722;-4.462;2022-08-21T08:34:23;100621.00;;;44.35;14.08
60725;BME280;59881;36.722;-4.462;2022-08-21T08:36:48;101020.31;;;46.66;13.96
60725;BME280;59881;36.722;-4.462;2022-08-21T08:39:14;100928.94;;;47.14;13.80
60725;BME280;59881;36.722;-4.462;2022-08-21T08:41:41;100647.50;;;44.79;13.88
60725;BME280;59881;36.722;-4.462;2022-08-21T08:44:08;100785.66;;;46.73;13.67
60725;BME280;59881;36.722;-4.462;2022-08-21T08:51:51;100927.75;;;47.98;12.62
60725;BME280;59881;36.722;-4.462;2022-08-21T08:54:24;100836.22;;;47.30;13.04
60725;BME280;59881;36.722;-4.462;2022-08-21T08:57:00;100342.22;;;44.78;13.11
60725;BME280;59881;36.722;-4.462;2022-08-21T08:59:40;100413.28;;;45.67;12.18
60725;BME280;59881;36.722;-4.462;2022-08-21T09:02:06;100985.81;;;49.26;11.90
60725;BME280;59881;36.722;-4.462;2022-08-21T09:04:33;100921.88;;;49.56;11.09
60725;BME280;59881;36.722;-4.462;2022-08-21T09:07:12;100925.59;;;49.76;11.16
60725;BME280;59881;36.722;-4.462;2022-08-21T09:09:55;100856.25;;;49.38;10.94
60725;BME280;59881;36.722;-4.462;2022-08-21T09:15:23;100910.59;;;50.20;10.61
60725;BME280;59881;36.722;-4.462;2022-08-21T09:17:59;100918.94;;;50.36;10.37
60725;BME280;59881;36.722;-4.462;2022-08-21T09:28:32;100495.63;;;46.66;10.98
60725;BME280;59881;36.722;-4.462;2022-08-21T09:30:58;100929.28;;;49.80;10.18
60725;BME280;59881;36.722;-4.462;2022-08-21T09:33:28;100879.78;;;50.20;9.91
60725;BME280;59881;36.722;-4.462;2022-08-21T09:35:55;100800.13;;;49.15;9.42
60725;BME280;59881;36.722;-4.462;2022-08-21T09:38:34;100892.34;;;48.14;11.21
60725;BME280;59881;36.722;-4.462;2022-08-21T09:41:06;101204.50;;;46.44;12.26
60725;BME280;59881;36.722;-4.462;2022-08-21T09:43:33;100920.84;;;45.87;13.15
60725;BME280;59881;36.722;-4.462;2022-08-21T09:46:20;100978.66;;;46.19;13.45
60725;BME280;59881;36.722;-4.462;2022-08-21T09:48:49;100410.66;;;43.64;13.09
60725;BME280;59881;36.722;-4.462;2022-08-21T09:51:18;100662.34;;;44.36;12.69
60725;BME280;59881;36.722;-4.462;2022-08-21T09:54:09;100346.03;;;42.11;13.52
60725;BME280;59881;36.722;-4.462;2022-08-21T09:56:37;100392.56;;;41.69;13.81
60725;BME280;59881;36.722;-4.462;2022-08-21T09:59:30;100976.00;;;44.59;14.50
60725;BME280;59881;36.722;-4.462;2022-08-21T10:01:58;100984.50;;;44.54;14.93
60725;BME280;59881;36.722;-4.462;2022-08-21T10:04:32;100824.66;;;43.87;14.77
60725;BME280;59881;36.722;-4.462;2022-08-21T10:07:13;100903.78;;;43.75;15.91
60725;BME280;59881;36.722;-4.462;2022-08-21T10:09:41;100353.09;;;40.42;15.97
60725;BME280;59881;36.722;-4.462;2022-08-21T10:12:16;100377.84;;;40.84;16.52
60725;BME280;59881;36.722;-4.462;2022-08-21T10:15:00;100921.91;;;44.65;16.32
60725;BME280;59881;36.722;-4.462;2022-08-21T10:17:44;100437.56;;;41.39;16.85
60725;BME280;59881;36.722;-4.462;2022-08-21T10:20:22;100915.09;;;44.89;16.97
60725;BME280;59881;36.722;-4.462;2022-08-21T10:25:57;100420.91;;;41.84;17.36
60725;BME280;59881;36.722;-4.462;2022-08-21T10:28:36;100898.34;;;45.15;15.62
60725;BME280;59881;36.722;-4.462;2022-08-21T10:36:44;100670.31;;;42.00;16.84
60725;BME280;59881;36.722;-4.462;2022-08-21T10:39:34;100623.84;;;42.73;16.14
60725;BME280;59881;36.722;-4.462;2022-08-21T10:42:38;100893.47;;;45.03;15.80
60725;BME280;59881;36.722;-4.462;2022-08-21T10:45:15;100480.97;;;42.72;16.58
60725;BME280;59881;36.722;-4.462;2022-08-21T10:47:55;100412.59;;;40.34;18.50
60725;BME280;59881;36.722;-4.462;2022-08-21T10:50:31;100288.38;;;35.15;22.92
60725;BME280;59881;36.722;-4.462;2022-08-21T11:01:30;100896.81;;;29.97;37.40
60725;BME280;59881;36.722;-4.462;2022-08-21T11:07:00;100946.91;;;29.26;40.36
60725;BME280;59881;36.722;-4.462;2022-08-21T11:09:27;100244.97;;;24.61;42.21
60725;BME280;59881;36.722;-4.462;2022-08-21T11:11:58;101176.19;;;28.50;44.15
60725;BME280;59881;36.722;-4.462;2022-08-21T11:14:48;100792.50;;;27.71;44.14
60725;BME280;59881;36.722;-4.462;2022-08-21T11:17:24;100361.94;;;25.07;45.15
60725;BME280;59881;36.722;-4.462;2022-08-21T11:20:26;100914.34;;;28.42;46.81
60725;BME280;59881;36.722;-4.462;2022-08-21T11:23:01;100349.69;;;24.91;47.68
60725;BME280;59881;36.722;-4.462;2022-08-21T11:25:31;100913.16;;;28.32;48.70
60725;BME280;59881;36.722;-4.462;2022-08-21T11:28:28;100926.13;;;28.23;48.53
60725;BME280;59881;36.722;-4.462;2022-08-21T11:34:38;101095.72;;;28.37;48.06
60725;BME280;59881;36.722;-4.462;2022-08-21T11:36:51;100088.84;;;23.11;50.00
60725;BME280;59881;36.722;-4.462;2022-08-21T11:39:30;100229.69;;;23.65;50.75
60725;BME280;59881;36.722;-4.462;2022-08-21T11:42:20;100928.88;;;27.96;51.84
60725;BME280;59881;36.722;-4.462;2022-08-21T11:47:49;100169.53;;;22.75;54.86
60725;BME280;59881;36.722;-4.462;2022-08-21T11:50:26;100942.56;;;27.15;55.81
60725;BME280;59881;36.722;-4.462;2022-08-21T11:52:58;101070.28;;;27.17;55.83
60725;BME280;59881;36.722;-4.462;2022-08-21T11:55:53;100910.94;;;27.09;55.21
60725;BME280;59881;36.722;-4.462;2022-08-21T11:58:36;100739.09;;;25.85;56.32
60725;BME280;59881;36.722;-4.462;2022-08-21T12:01:11;100733.84;;;25.70;54.78
60725;BME280;59881;36.722;-4.462;2022-08-21T12:03:41;100148.53;;;22.14;55.89
60725;BME280;59881;36.722;-4.462;2022-08-21T12:06:11;100148.22;;;22.24;55.28
60725;BME280;59881;36.722;-4.462;2022-08-21T12:08:40;100234.09;;;22.88;54.62
60725;BME280;59881;36.722;-4.462;2022-08-21T12:13:54;100735.72;;;26.17;52.16
60725;BME280;59881;36.722;-4.462;2022-08-21T12:16:37;100833.75;;;26.79;52.47
60725;BME280;59881;36.722;-4.462;2022-08-21T12:19:10;101062.66;;;27.34;52.31
60725;BME280;59881;36.722;-4.462;2022-08-21T12:21:53;100864.38;;;27.40;50.98
60725;BME280;59881;36.722;-4.462;2022-08-21T12:24:44;100732.47;;;26.55;50.84
60725;BME280;59881;36.722;-4.462;2022-08-21T12:29:49;100605.44;;;25.27;53.47
60725;BME280;59881;36.722;-4.462;2022-08-21T12:34:47;100853.47;;;26.73;54.39
60725;BME280;59881;36.722;-4.462;2022-08-21T12:37:56;100983.19;;;26.73;54.37
60725;BME280;59881;36.722;-4.462;2022-08-21T12:40:03;100870.31;;;26.69;53.52
60725;BME280;59881;36.722;-4.462;2022-08-21T12:42:38;100281.72;;;23.23;53.50
60725;BME280;59881;36.722;-4.462;2022-08-21T12:45:23;100817.22;;;26.54;52.92
60725;BME280;59881;36.722;-4.462;2022-08-21T12:50:36;100929.69;;;26.20;52.47
60725;BME280;59881;36.722;-4.462;2022-08-21T12:53:28;100996.25;;;26.70;52.47
60725;BME280;59881;36.722;-4.462;2022-08-21T12:55:54;100271.69;;;23.31;52.57
60725;BME280;59881;36.722;-4.462;2022-08-21T12:58:28;100825.63;;;26.73;52.17
60725;BME280;59881;36.722;-4.462;2022-08-21T13:00:58;100833.94;;;26.78;51.60
60725;BME280;59881;36.722;-4.462;2022-08-21T13:03:25;100045.44;;;21.80;52.60
60725;BME280;59881;36.722;-4.462;2022-08-21T13:05:51;100801.69;;;26.76;53.13
60725;BME280;59881;36.722;-4.462;2022-08-21T13:08:20;100123.84;;;22.47;52.09
60725;BME280;59881;36.722;-4.462;2022-08-21T13:10:47;100945.78;;;26.70;52.22
60725;BME280;59881;36.722;-4.462;2022-08-21T13:13:22;100752.03;;;26.57;52.66
60725;BME280;59881;36.722;-4.462;2022-08-21T13:15:48;100399.91;;;24.57;51.41
60725;BME280;59881;36.722;-4.462;2022-08-21T13:18:23;100861.16;;;26.76;51.25
60725;BME280;59881;36.722;-4.462;2022-08-21T13:20:50;99927.56;;;21.65;52.32
60725;BME280;59881;36.722;-4.462;2022-08-21T13:23:28;101057.44;;;26.77;51.16
60725;BME280;59881;36.722;-4.462;2022-08-21T13:25:54;100253.81;;;23.52;52.12
60725;BME280;59881;36.722;-4.462;2022-08-21T13:28:21;100885.31;;;26.91;53.76
60725;BME280;59881;36.722;-4.462;2022-08-21T13:30:50;100074.97;;;22.51;52.68
60725;BME280;59881;36.722;-4.462;2022-08-21T13:33:20;100054.13;;;22.25;52.49
60725;BME280;59881;36.722;-4.462;2022-08-21T13:38:16;100792.91;;;26.54;53.91
60725;BME280;59881;36.722;-4.462;2022-08-21T13:41:27;100105.53;;;22.29;55.50
60725;BME280;59881;36.722;-4.462;2022-08-21T13:43:36;100246.44;;;22.40;56.73
60725;BME280;59881;36.722;-4.462;2022-08-21T13:46:08;100944.81;;;26.50;58.10
60725;BME280;59881;36.722;-4.462;2022-08-21T13:48:36;100795.59;;;26.48;59.03
60725;BME280;59881;36.722;-4.462;2022-08-21T13:51:03;100331.06;;;23.65;59.94